Time;durP1;ratioP1;P1;durP2;ratioP2;P2;SDS_P1;SDS_P2;PMS_P1;PMS_P2;Temp;Humidity;BMP_temperature;BMP_pressure;BME280_temperature;BME280_humidity;BME280_pressure;Samples;Min_cycle;Max_cycle;Signal;HPM_P1;HPM_P2
2021/11/18 00:00:47;;;;;;;192.53;94.25;;;;;;;0.23;57.85;101512.70;1755945;80;21617;-64
2021/11/18 00:03:14;;;;;;;196.98;93.37;;;;;;;0.31;58.32;101510.99;1728669;81;21081;-66
2021/11/18 00:05:41;;;;;;;192.98;93.00;;;;;;;0.34;58.74;101510.37;1791198;79;21149;-67
2021/11/18 00:08:08;;;;;;;196.28;98.20;;;;;;;0.42;58.38;101516.34;1799101;79;21154;-65
2021/11/18 00:10:42;;;;;;;196.25;95.80;;;;;;;0.37;58.69;101514.48;1798313;79;20864;-66
2021/11/18 00:13:14;;;;;;;217.43;103.45;;;;;;;0.37;58.44;101510.17;1790676;79;21833;-67
2021/11/18 00:15:42;;;;;;;216.45;102.90;;;;;;;0.55;57.24;101513.90;1791808;79;21232;-66
2021/11/18 00:18:13;;;;;;;237.00;112.92;;;;;;;0.83;55.74;101509.27;1800095;79;20972;-66
2021/11/18 00:20:44;;;;;;;253.50;120.22;;;;;;;0.79;55.12;101501.39;1798062;79;21129;-67
2021/11/18 00:23:10;;;;;;;;;;;;;;;0.70;54.91;101495.06;1797459;79;21669;-67
2021/11/18 00:25:38;;;;;;;243.67;109.72;;;;;;;0.78;54.88;101495.89;1796412;78;20712;-67
2021/11/18 00:28:05;;;;;;;237.32;111.68;;;;;;;0.67;55.12;101497.33;1803121;77;20995;-66
2021/11/18 00:30:32;;;;;;;234.00;108.10;;;;;;;0.84;54.65;101497.66;1798494;79;21059;-65
2021/11/18 00:32:59;;;;;;;227.43;104.65;;;;;;;0.73;54.21;101490.58;1803298;79;21226;-65
2021/11/18 00:35:28;;;;;;;222.55;103.83;;;;;;;0.37;55.12;101492.22;1796784;79;20996;-65
2021/11/18 00:37:55;;;;;;;222.40;105.37;;;;;;;0.71;54.54;101483.87;1801522;78;21524;-66
2021/11/18 00:40:29;;;;;;;192.22;92.37;;;;;;;0.54;54.35;101486.14;1797248;79;21067;-71
2021/11/18 00:42:56;;;;;;;232.65;117.25;;;;;;;0.27;55.26;101476.17;1803780;78;20970;-72
2021/11/18 00:45:24;;;;;;;225.75;112.47;;;;;;;0.20;55.45;101482.92;1797254;79;21137;-65
2021/11/18 00:47:54;;;;;;;245.17;129.45;;;;;;;0.14;55.65;101482.42;1777553;79;20900;-65
2021/11/18 00:50:25;;;;;;;284.30;154.10;;;;;;;0.20;55.30;101479.07;1798429;79;21023;-70
2021/11/18 00:52:52;;;;;;;260.02;129.40;;;;;;;-0.02;55.76;101486.30;1804282;79;21034;-65
2021/11/18 00:55:22;;;;;;;238.18;119.00;;;;;;;-0.02;56.15;101481.17;1806290;79;21113;-66
2021/11/18 00:57:49;;;;;;;248.22;122.50;;;;;;;-0.06;56.26;101480.52;1813216;78;21819;-66
2021/11/18 01:00:20;;;;;;;239.25;120.95;;;;;;;-0.05;56.26;101483.44;1809893;78;21037;-69
2021/11/18 01:02:48;;;;;;;252.70;123.75;;;;;;;0.00;56.19;101478.09;1810691;78;21253;-73
2021/11/18 01:05:16;;;;;;;235.20;115.47;;;;;;;0.13;55.82;101476.48;1805126;78;21023;-65
2021/11/18 01:07:43;;;;;;;226.50;110.17;;;;;;;0.11;56.02;101473.16;1810009;79;20955;-64
2021/11/18 01:10:13;;;;;;;212.12;104.05;;;;;;;0.02;55.73;101471.13;1805336;78;21068;-72
2021/11/18 01:12:40;;;;;;;208.45;99.37;;;;;;;0.09;55.43;101473.72;1809598;79;21017;-65
2021/11/18 01:15:09;;;;;;;202.25;97.35;;;;;;;-0.01;55.19;101475.95;1810119;78;20996;-65
2021/11/18 01:17:38;;;;;;;161.85;77.30;;;;;;;0.05;55.16;101472.23;1811100;78;20939;-64
2021/11/18 01:20:07;;;;;;;192.85;91.28;;;;;;;-0.21;55.35;101467.72;1810718;78;21011;-66
2021/11/18 01:22:35;;;;;;;204.15;94.65;;;;;;;-0.44;56.40;101465.95;1808995;78;21122;-72
2021/11/18 01:25:03;;;;;;;210.88;98.47;;;;;;;-0.27;56.61;101469.69;1807449;78;20987;-66
2021/11/18 01:27:33;;;;;;;206.75;99.58;;;;;;;-0.23;56.39;101471.63;1805682;79;20957;-66
2021/11/18 01:30:07;;;;;;;201.20;95.47;;;;;;;-0.18;56.01;101479.91;1804127;78;20963;-70
2021/11/18 01:32:35;;;;;;;178.55;89.55;;;;;;;-0.29;55.60;101465.12;1806231;78;20908;-70
2021/11/18 01:35:03;;;;;;;151.75;76.15;;;;;;;-0.32;55.52;101461.89;1806097;79;21548;-67
2021/11/18 01:37:32;;;;;;;157.45;77.30;;;;;;;-0.19;55.31;101463.32;1805145;78;21249;-68
2021/11/18 01:39:59;;;;;;;151.45;73.37;;;;;;;-0.20;54.94;101459.11;1807003;78;21014;-65
2021/11/18 01:42:26;;;;;;;146.37;66.07;;;;;;;-0.17;54.61;101462.34;1803052;78;20981;-73
2021/11/18 01:44:54;;;;;;;141.90;67.30;;;;;;;-0.18;54.49;101456.84;1806406;79;22286;-65
2021/11/18 01:47:21;;;;;;;132.27;66.57;;;;;;;-0.04;54.21;101450.94;1804360;79;21105;-67
2021/11/18 01:49:49;;;;;;;137.05;65.97;;;;;;;-0.02;53.75;101459.39;1805912;79;20896;-66
2021/11/18 01:52:22;;;;;;;132.00;63.63;;;;;;;-0.11;53.85;101463.75;1804861;78;20904;-72
2021/11/18 01:54:50;;;;;;;128.55;64.60;;;;;;;-0.16;53.90;101465.72;1801928;79;21153;-66
2021/11/18 01:57:24;;;;;;;124.53;61.70;;;;;;;-0.26;53.97;101467.52;1803759;79;20993;-66
2021/11/18 01:59:52;;;;;;;126.35;63.52;;;;;;;-0.32;54.10;101467.84;1804540;78;21144;-66
2021/11/18 02:02:23;;;;;;;116.30;61.92;;;;;;;-0.33;54.15;101462.81;1792858;78;22270;-66
2021/11/18 02:05:18;;;;;;;129.40;61.65;;;;;;;-0.19;54.05;101468.45;1755963;80;21027;-65
2021/11/18 02:07:45;;;;;;;124.72;60.00;;;;;;;-0.22;54.15;101467.36;1814581;78;20962;-71
2021/11/18 02:10:27;;;;;;;124.82;61.02;;;;;;;-0.25;54.09;101461.47;1816214;78;21046;-66
2021/11/18 02:12:53;;;;;;;114.17;57.25;;;;;;;-0.25;54.12;101455.07;1816928;78;21186;-66
2021/11/18 02:15:29;;;;;;;116.30;58.40;;;;;;;-0.17;53.91;101460.23;1814037;78;20900;-72
2021/11/18 02:17:58;;;;;;;112.40;54.63;;;;;;;-0.12;53.60;101462.90;1816468;78;20958;-67
2021/11/18 02:20:32;;;;;;;120.57;59.35;;;;;;;-0.10;53.60;101456.42;1816829;78;21572;-67
2021/11/18 02:23:01;;;;;;;123.97;59.63;;;;;;;0.01;53.45;101461.79;1817329;78;21476;-66
2021/11/18 02:25:31;;;;;;;125.00;61.75;;;;;;;0.15;53.07;101458.00;1814209;78;21807;-69
2021/11/18 02:27:58;;;;;;;135.93;65.75;;;;;;;0.08;52.95;101460.54;1816705;78;21495;-67
2021/11/18 02:30:27;;;;;;;116.97;59.10;;;;;;;-0.06;52.96;101451.50;1816562;78;21551;-66
2021/11/18 02:32:55;;;;;;;115.55;56.30;;;;;;;-0.08;53.06;101457.97;1816638;78;20968;-66
2021/11/18 02:35:27;;;;;;;116.22;53.52;;;;;;;-0.05;52.97;101456.98;1813625;78;21021;-68
2021/11/18 02:37:55;;;;;;;103.72;51.83;;;;;;;-0.23;52.75;101460.09;1816796;78;21130;-66
2021/11/18 02:40:23;;;;;;;98.90;49.50;;;;;;;-0.12;52.59;101464.64;1814017;78;20899;-66
2021/11/18 02:42:50;;;;;;;91.30;49.58;;;;;;;-0.07;52.23;101467.80;1816360;78;21504;-66
2021/11/18 02:45:21;;;;;;;91.20;48.98;;;;;;;-0.02;52.08;101456.36;1813533;78;21029;-66
2021/11/18 02:47:48;;;;;;;93.72;48.87;;;;;;;-0.09;52.00;101463.20;1817173;78;21110;-65
2021/11/18 02:50:20;;;;;;;94.30;47.70;;;;;;;-0.24;52.04;101461.02;1812964;78;21095;-66
2021/11/18 02:52:47;;;;;;;102.35;49.03;;;;;;;-0.47;52.48;101455.86;1808724;78;21410;-66
2021/11/18 02:55:21;;;;;;;95.62;48.98;;;;;;;-0.61;53.16;101460.42;1812660;78;21029;-66
2021/11/18 02:57:49;;;;;;;97.53;50.75;;;;;;;-0.60;53.42;101459.54;1814784;78;21039;-68
2021/11/18 03:00:24;;;;;;;102.65;52.40;;;;;;;-0.50;53.31;101461.96;1812868;78;21093;-66
2021/11/18 03:02:51;;;;;;;104.05;52.13;;;;;;;-0.45;52.87;101457.08;1801980;78;21193;-72
2021/11/18 03:05:18;;;;;;;100.25;53.55;;;;;;;-0.63;53.04;101458.41;1806904;78;20975;-65
2021/11/18 03:07:47;;;;;;;113.12;55.52;;;;;;;-0.75;53.48;101451.39;1803589;79;21050;-68
2021/11/18 03:10:15;;;;;;;120.42;62.53;;;;;;;-0.83;53.76;101449.23;1796012;78;20970;-65
2021/11/18 03:12:43;;;;;;;120.13;62.65;;;;;;;-0.82;54.05;101443.66;1805228;79;21024;-64
2021/11/18 03:15:11;;;;;;;104.00;51.15;;;;;;;-0.80;54.31;101446.48;1808867;79;21122;-73
2021/11/18 03:17:39;;;;;;;101.15;53.10;;;;;;;-0.62;54.20;101442.13;1810178;79;22053;-66
2021/11/18 03:20:19;;;;;;;100.07;53.90;;;;;;;-0.55;54.00;101440.08;1808955;79;22238;-64
2021/11/18 03:22:46;;;;;;;104.60;54.93;;;;;;;-0.54;53.84;101439.16;1809883;79;21018;-74
2021/11/18 03:25:15;;;;;;;109.75;53.63;;;;;;;-0.34;53.59;101445.34;1809893;78;21607;-65
2021/11/18 03:27:44;;;;;;;107.07;53.48;;;;;;;-0.13;52.46;101441.22;1811289;78;24936;-66
2021/11/18 03:30:15;;;;;;;100.10;53.65;;;;;;;-0.30;52.47;101444.25;1811072;78;20962;-65
2021/11/18 03:32:42;;;;;;;106.45;53.33;;;;;;;-0.32;52.24;101439.66;1806739;79;20900;-73
2021/11/18 03:35:10;;;;;;;104.90;54.35;;;;;;;-0.35;52.25;101441.56;1810071;78;20951;-65
2021/11/18 03:37:37;;;;;;;104.67;55.12;;;;;;;-0.13;51.89;101437.37;1811285;78;21019;-63
2021/11/18 03:40:05;;;;;;;107.87;53.23;;;;;;;-0.17;51.80;101435.89;1809948;79;21137;-64
2021/11/18 03:42:33;;;;;;;115.88;56.15;;;;;;;-0.36;51.80;101429.66;1760700;80;20884;-63
2021/11/18 03:45:00;;;;;;;131.60;59.70;;;;;;;-0.46;51.96;101430.61;1773043;80;20888;-73
2021/11/18 03:47:27;;;;;;;143.13;65.67;;;;;;;-0.65;51.84;101438.91;1771842;79;21118;-64
2021/11/18 03:49:54;;;;;;;142.90;63.60;;;;;;;-0.79;51.75;101441.76;1746508;80;21082;-67
2021/11/18 03:52:22;;;;;;;133.37;59.10;;;;;;;-0.88;51.49;101446.06;1746906;81;21141;-64
2021/11/18 03:54:50;;;;;;;126.00;58.95;;;;;;;-1.03;51.73;101440.46;1746400;82;20881;-64
2021/11/18 03:57:17;;;;;;;128.90;56.60;;;;;;;-0.80;51.29;101442.64;1771887;80;20947;-72
2021/11/18 03:59:48;;;;;;;112.50;53.02;;;;;;;-0.68;50.96;101445.47;1773812;80;21089;-64
2021/11/18 04:02:19;;;;;;;101.15;48.15;;;;;;;-0.72;50.89;101450.37;1757774;80;21057;-65
2021/11/18 04:04:50;;;;;;;81.08;40.17;;;;;;;-0.78;50.85;101449.80;1786208;79;21989;-67
2021/11/18 04:07:17;;;;;;;83.78;42.70;;;;;;;-0.63;51.00;101455.03;1786089;80;20993;-70
2021/11/18 04:09:47;;;;;;;70.80;38.05;;;;;;;-0.61;51.08;101446.34;1786918;80;21226;-67
2021/11/18 04:12:15;;;;;;;70.17;37.28;;;;;;;-0.86;51.47;101451.13;1786016;80;21634;-66
2021/11/18 04:14:42;;;;;;;67.35;37.58;;;;;;;-0.74;51.55;101450.02;1785414;80;21088;-67
2021/11/18 04:17:11;;;;;;;68.60;34.92;;;;;;;-0.74;51.59;101450.02;1785587;80;21733;-72
2021/11/18 04:19:38;;;;;;;83.10;43.63;;;;;;;-0.78;51.54;101442.58;1785922;80;21048;-66
2021/11/18 04:22:06;;;;;;;81.47;44.50;;;;;;;-0.75;51.14;101441.14;1785865;80;20990;-66
2021/11/18 04:24:35;;;;;;;74.70;39.15;;;;;;;-1.16;51.60;101442.84;1786058;80;20937;-66
2021/11/18 04:27:02;;;;;;;62.05;33.48;;;;;;;-1.05;51.58;101443.57;1786261;80;20973;-67
2021/11/18 04:29:29;;;;;;;56.30;30.95;;;;;;;-1.00;51.33;101445.42;1786485;80;21095;-66
2021/11/18 04:32:02;;;;;;;58.35;30.57;;;;;;;-0.96;51.28;101439.70;1786359;80;20985;-67
2021/11/18 04:34:31;;;;;;;55.80;28.40;;;;;;;-0.98;51.40;101446.19;1752479;80;21511;-66
2021/11/18 04:36:58;;;;;;;49.20;26.25;;;;;;;-1.09;51.86;101448.47;1786153;80;21790;-71
2021/11/18 04:39:26;;;;;;;51.00;26.17;;;;;;;-1.26;52.34;101446.75;1779201;80;20998;-66
2021/11/18 04:41:53;;;;;;;52.10;26.50;;;;;;;-1.40;53.04;101457.70;1781695;80;22101;-69
2021/11/18 04:44:21;;;;;;;48.15;24.23;;;;;;;-1.31;53.29;101457.22;1784671;80;20998;-67
2021/11/18 04:46:49;;;;;;;51.10;26.40;;;;;;;-1.24;53.43;101458.58;1747120;80;21073;-64
2021/11/18 04:49:16;;;;;;;51.50;27.90;;;;;;;-1.22;53.55;101460.59;1782477;80;20989;-66
2021/11/18 04:51:44;;;;;;;48.05;23.90;;;;;;;-1.24;53.73;101463.69;1778692;80;22377;-67
2021/11/18 04:54:12;;;;;;;54.13;27.37;;;;;;;-1.18;53.68;101457.42;1785252;80;22054;-72
2021/11/18 04:56:40;;;;;;;51.15;26.50;;;;;;;-1.18;53.60;101460.44;1785350;80;20892;-65
2021/11/18 04:59:08;;;;;;;46.50;23.92;;;;;;;-1.11;53.81;101457.48;1784819;80;20988;-68
2021/11/18 05:01:36;;;;;;;48.70;24.07;;;;;;;-1.11;53.75;101457.95;1781355;79;20969;-65
2021/11/18 05:04:06;;;;;;;54.38;25.80;;;;;;;-0.96;53.64;101454.59;1776176;80;20977;-72
2021/11/18 05:06:33;;;;;;;47.65;24.10;;;;;;;-0.89;53.62;101458.50;1779486;80;21070;-64
2021/11/18 05:09:00;;;;;;;47.35;24.63;;;;;;;-0.91;54.07;101463.31;1786974;80;21570;-64
2021/11/18 05:11:28;;;;;;;49.13;25.12;;;;;;;-0.42;53.68;101458.98;1785826;80;20989;-65
2021/11/18 05:13:55;;;;;;;48.63;23.83;;;;;;;-0.26;53.51;101458.55;1773171;80;21064;-65
2021/11/18 05:16:23;;;;;;;43.73;24.12;;;;;;;-0.22;53.56;101463.52;1747610;80;20982;-65
2021/11/18 05:18:52;;;;;;;45.70;26.15;;;;;;;-0.19;54.09;101465.45;1785786;80;21170;-62
2021/11/18 05:21:25;;;;;;;43.98;23.20;;;;;;;-0.03;54.24;101465.44;1786006;79;20934;-63
2021/11/18 05:23:51;;;;;;;48.63;25.27;;;;;;;0.31;54.37;101462.27;1775828;80;21155;-74
2021/11/18 05:26:20;;;;;;;43.15;24.25;;;;;;;0.62;53.46;101464.71;1762547;80;20910;-65
2021/11/18 05:28:49;;;;;;;49.25;25.43;;;;;;;0.69;52.11;101462.16;1758935;80;20962;-63
2021/11/18 05:31:17;;;;;;;56.23;26.75;;;;;;;0.75;51.17;101455.01;1761258;80;21119;-73
2021/11/18 05:33:49;;;;;;;55.45;30.50;;;;;;;0.53;50.72;101452.42;1783209;80;21625;-69
2021/11/18 05:36:19;;;;;;;52.98;29.95;;;;;;;0.65;50.99;101450.89;1729715;81;21034;-64
2021/11/18 05:38:46;;;;;;;51.45;26.70;;;;;;;1.00;51.58;101449.25;1769792;80;21070;-61
2021/11/18 05:41:14;;;;;;;56.23;30.27;;;;;;;1.51;51.13;101443.95;1777323;80;20993;-69
2021/11/18 05:43:44;;;;;;;63.00;32.08;;;;;;;1.79;50.06;101443.53;1758699;80;21903;-65
2021/11/18 05:46:13;;;;;;;65.05;33.98;;;;;;;2.09;49.16;101443.33;1760479;80;22332;-64
2021/11/18 05:48:40;;;;;;;58.68;29.63;;;;;;;2.37;48.66;101442.34;1758999;80;20938;-64
2021/11/18 05:51:09;;;;;;;58.58;31.52;;;;;;;2.55;48.03;101432.59;1765147;80;21499;-66
2021/11/18 05:53:40;;;;;;;54.98;32.63;;;;;;;2.88;47.22;101432.90;1784269;80;21132;-72
2021/11/18 05:56:11;;;;;;;56.18;30.92;;;;;;;2.88;47.22;101432.90;1766858;80;21111;-64
2021/11/18 05:58:39;;;;;;;62.80;32.20;;;;;;;3.15;46.44;101434.52;1759380;80;20979;-64
2021/11/18 06:01:07;;;;;;;56.70;32.45;;;;;;;3.15;46.19;101436.62;1760463;80;21201;-67
2021/11/18 06:03:34;;;;;;;56.18;31.10;;;;;;;3.33;46.10;101437.55;1782311;80;21075;-69
2021/11/18 06:06:02;;;;;;;61.68;32.42;;;;;;;3.70;45.51;101437.54;1781816;80;21089;-64
2021/11/18 06:08:29;;;;;;;57.53;32.83;;;;;;;3.84;45.81;101429.17;1773146;80;21136;-64
2021/11/18 06:11:00;;;;;;;52.85;31.77;;;;;;;4.30;45.97;101422.41;1779234;80;20946;-75
2021/11/18 06:13:29;;;;;;;46.75;29.63;;;;;;;4.99;45.47;101426.24;1786638;79;21496;-64
2021/11/18 06:15:57;;;;;;;56.55;34.60;;;;;;;5.46;44.35;101419.97;1782083;79;21295;-64
2021/11/18 06:18:26;;;;;;;55.78;32.58;;;;;;;5.88;44.04;101416.19;1784550;79;21065;-63
2021/11/18 06:20:54;;;;;;;50.30;32.20;;;;;;;6.15;43.56;101413.63;1785268;79;21183;-64
2021/11/18 06:23:22;;;;;;;56.15;34.25;;;;;;;6.75;43.09;101401.70;1782270;80;21491;-73
2021/11/18 06:25:50;;;;;;;64.00;34.75;;;;;;;7.26;42.02;101402.87;1766446;79;21096;-65
2021/11/18 06:28:18;;;;;;;54.98;34.20;;;;;;;7.40;41.53;101397.80;1765509;79;21465;-65
2021/11/18 06:30:50;;;;;;;58.92;35.00;;;;;;;7.52;41.16;101398.02;1776228;79;21006;-68
2021/11/18 06:33:18;;;;;;;52.08;33.58;;;;;;;7.69;41.25;101398.29;1765993;79;21782;-70
2021/11/18 06:35:45;;;;;;;53.02;34.23;;;;;;;7.89;40.74;101401.25;1780277;80;21036;-64
2021/11/18 06:38:16;;;;;;;55.38;34.65;;;;;;;8.42;39.82;101395.59;1782578;80;21062;-65
2021/11/18 06:40:47;;;;;;;58.50;38.08;;;;;;;8.51;39.60;101397.33;1771302;79;20984;-69
2021/11/18 06:43:14;;;;;;;61.37;37.20;;;;;;;8.81;39.09;101388.95;1772806;80;21019;-68
2021/11/18 06:45:45;;;;;;;57.67;38.48;;;;;;;9.20;38.35;101388.27;1784512;80;21166;-69
2021/11/18 06:48:14;;;;;;;69.67;45.48;;;;;;;9.46;37.79;101386.26;1784894;80;21080;-69
2021/11/18 06:50:43;;;;;;;70.83;44.85;;;;;;;9.40;37.54;101384.27;1774396;80;21014;-71
2021/11/18 06:53:11;;;;;;;67.60;45.43;;;;;;;9.67;37.38;101387.28;1780160;79;21068;-68
2021/11/18 06:55:39;;;;;;;55.88;39.50;;;;;;;9.73;37.29;101382.76;1778732;80;21298;-68
2021/11/18 06:58:06;;;;;;;59.60;40.03;;;;;;;9.89;36.93;101384.70;1774308;79;21078;-68
2021/11/18 07:00:34;;;;;;;59.10;38.65;;;;;;;10.02;36.91;101381.70;1785602;80;21503;-69
2021/11/18 07:03:08;;;;;;;54.83;37.65;;;;;;;10.14;36.61;101376.56;1777538;79;20946;-71
2021/11/18 07:05:35;;;;;;;56.42;36.20;;;;;;;10.16;36.75;101367.64;1775772;80;21119;-70
2021/11/18 07:08:05;;;;;;;54.63;35.80;;;;;;;10.41;36.51;101358.19;1773052;80;21491;-70
2021/11/18 07:10:33;;;;;;;51.37;34.58;;;;;;;10.20;36.68;101354.63;1786286;79;21126;-71
2021/11/18 07:13:02;;;;;;;58.33;36.35;;;;;;;10.18;36.57;101353.95;1784444;80;21052;-71
2021/11/18 07:15:30;;;;;;;53.15;35.73;;;;;;;10.29;36.31;101354.71;1786075;80;21024;-71
2021/11/18 07:17:58;;;;;;;55.43;36.33;;;;;;;10.59;36.03;101353.41;1783518;80;20953;-70
2021/11/18 07:20:26;;;;;;;53.90;34.83;;;;;;;10.32;36.48;101344.80;1772427;80;21077;-70
2021/11/18 07:22:54;;;;;;;54.42;37.17;;;;;;;10.81;36.51;101347.62;1781078;79;21110;-71
2021/11/18 07:25:28;;;;;;;58.87;39.85;;;;;;;11.01;36.10;101347.36;1782268;80;21009;-69
2021/11/18 07:27:56;;;;;;;61.60;40.60;;;;;;;11.20;35.71;101345.28;1785693;80;21483;-69
2021/11/18 07:30:24;;;;;;;65.35;44.45;;;;;;;11.39;35.98;101341.55;1785097;80;20898;-72
2021/11/18 07:32:51;;;;;;;49.77;35.43;;;;;;;11.97;35.23;101338.50;1780801;80;20978;-73
2021/11/18 07:35:21;;;;;;;41.08;30.62;;;;;;;12.23;34.49;101337.45;1783296;78;22259;-71
2021/11/18 07:37:48;;;;;;;47.38;31.50;;;;;;;12.20;34.27;101334.70;1786811;80;21053;-68
2021/11/18 07:40:17;;;;;;;54.50;35.00;;;;;;;12.22;34.18;101331.91;1786556;80;21039;-70
2021/11/18 07:42:45;;;;;;;49.08;31.17;;;;;;;12.17;34.08;101334.53;1785508;80;21008;-69
2021/11/18 07:45:30;;;;;;;41.03;30.07;;;;;;;12.31;34.10;101334.35;1775750;80;21036;-71
2021/11/18 07:48:11;;;;;;;47.62;32.48;;;;;;;12.44;34.01;101331.20;1756058;80;21788;-71
2021/11/18 07:50:39;;;;;;;43.77;30.27;;;;;;;12.52;34.62;101339.50;1784124;80;21005;-70
2021/11/18 07:53:06;;;;;;;44.03;28.67;;;;;;;12.96;34.34;101331.95;1781339;80;21262;-69
2021/11/18 07:55:35;;;;;;;49.93;30.77;;;;;;;13.09;34.00;101332.69;1766085;80;21409;-71
2021/11/18 07:58:03;;;;;;;45.17;32.67;;;;;;;13.10;33.75;101327.77;1778994;80;21340;-71
2021/11/18 08:00:30;;;;;;;49.93;35.53;;;;;;;13.15;34.00;101328.89;1783395;78;22674;-71
2021/11/18 08:03:07;;;;;;;53.20;35.00;;;;;;;13.52;33.69;101322.59;1781031;78;21729;-70
2021/11/18 08:05:52;;;;;;;51.33;33.77;;;;;;;13.68;33.52;101325.09;1764327;80;21311;-71
2021/11/18 08:08:22;;;;;;;42.50;30.60;;;;;;;14.01;33.34;101323.45;1778426;80;21241;-70
2021/11/18 08:10:49;;;;;;;43.10;29.83;;;;;;;13.96;33.03;101316.14;1777303;80;21367;-69
2021/11/18 08:13:17;;;;;;;37.90;27.90;;;;;;;14.00;32.93;101313.98;1785408;80;21246;-69
2021/11/18 08:15:45;;;;;;;41.30;28.17;;;;;;;14.17;32.79;101308.89;1778622;79;21183;-69
2021/11/18 08:18:15;;;;;;;39.20;27.00;;;;;;;14.32;32.57;101300.52;1771370;80;21315;-69
2021/11/18 08:20:42;;;;;;;37.63;27.97;;;;;;;14.30;32.63;101298.56;1721233;82;21356;-68
2021/11/18 08:23:09;;;;;;;40.07;26.33;;;;;;;14.50;32.61;101298.03;1778582;80;21284;-68
2021/11/18 08:25:37;;;;;;;45.30;28.83;;;;;;;14.80;32.28;101302.72;1774637;80;22296;-73
2021/11/18 08:28:05;;;;;;;40.10;28.03;;;;;;;14.94;32.33;101302.38;1762570;80;21176;-73
2021/11/18 08:30:33;;;;;;;62.07;43.47;;;;;;;15.31;31.67;101296.89;1784237;80;21178;-69
2021/11/18 08:33:05;;;;;;;58.57;38.93;;;;;;;15.43;31.28;101299.01;1784908;80;21196;-70
2021/11/18 08:35:34;;;;;;;53.05;35.85;;;;;;;15.58;30.92;101295.80;1761601;80;21244;-70
2021/11/18 08:38:08;;;;;;;53.20;33.63;;;;;;;15.62;30.56;101297.55;1764620;79;21152;-70
2021/11/18 08:40:38;;;;;;;42.97;27.63;;;;;;;15.66;30.64;101290.43;1773994;80;21206;-70
2021/11/18 08:43:05;;;;;;;44.17;30.00;;;;;;;15.84;30.42;101297.03;1780236;79;21710;-69
2021/11/18 08:45:34;;;;;;;46.30;30.70;;;;;;;16.04;30.41;101291.38;1726271;81;21163;-68
2021/11/18 08:48:05;;;;;;;49.77;32.87;;;;;;;16.11;30.12;101286.98;1740857;81;21191;-70
2021/11/18 08:50:33;;;;;;;50.45;35.52;;;;;;;15.89;30.23;101282.80;1776709;80;21341;-69
2021/11/18 08:53:00;;;;;;;54.17;34.73;;;;;;;15.88;30.36;101287.75;1771158;80;20922;-69
2021/11/18 08:55:32;;;;;;;48.67;31.53;;;;;;;15.80;30.84;101286.89;1785066;80;21187;-72
2021/11/18 08:58:01;;;;;;;53.20;32.90;;;;;;;16.27;30.43;101284.02;1783523;80;21011;-71
2021/11/18 09:00:58;;;;;;;41.95;27.80;;;;;;;16.82;29.63;101272.69;1775766;80;21215;-71
2021/11/18 09:03:29;;;;;;;36.97;25.20;;;;;;;16.52;29.52;101275.13;1785405;80;21107;-67
2021/11/18 09:05:57;;;;;;;32.37;21.20;;;;;;;16.25;29.68;101265.48;1785243;80;21299;-71
2021/11/18 09:08:25;;;;;;;29.87;20.07;;;;;;;16.47;29.73;101260.41;1786560;80;21366;-70
2021/11/18 09:10:54;;;;;;;29.57;20.47;;;;;;;16.80;29.44;101251.03;1785290;80;20954;-70
2021/11/18 09:13:23;;;;;;;33.97;19.60;;;;;;;16.85;29.31;101249.91;1784947;80;21166;-70
2021/11/18 09:15:51;;;;;;;32.00;21.03;;;;;;;16.84;29.23;101243.84;1785767;80;21284;-68
2021/11/18 09:18:18;;;;;;;32.97;21.17;;;;;;;16.96;29.19;101238.79;1773639;80;21372;-70
2021/11/18 09:20:50;;;;;;;35.17;21.40;;;;;;;16.95;29.05;101235.34;1780546;80;21193;-70
2021/11/18 09:23:19;;;;;;;32.83;21.97;;;;;;;17.23;28.76;101230.39;1782757;80;21202;-70
2021/11/18 09:25:48;;;;;;;36.07;24.00;;;;;;;17.75;28.01;101220.33;1781475;80;21225;-68
2021/11/18 09:28:16;;;;;;;33.73;22.83;;;;;;;17.68;27.81;101224.77;1776445;80;21937;-72
2021/11/18 09:30:49;;;;;;;34.40;23.67;;;;;;;17.51;27.79;101222.28;1735043;81;21328;-71
2021/11/18 09:33:18;;;;;;;39.17;23.97;;;;;;;17.29;28.16;101212.46;1784488;80;21330;-68
2021/11/18 09:35:49;;;;;;;41.57;25.60;;;;;;;17.12;28.32;101210.76;1785783;80;21814;-70
2021/11/18 09:38:18;;;;;;;33.88;23.42;;;;;;;17.44;28.20;101205.66;1783344;78;21678;-72
2021/11/18 09:41:03;;;;;;;36.17;24.27;;;;;;;17.52;27.86;101204.13;1783635;80;21487;-72
2021/11/18 09:43:39;;;;;;;47.10;30.43;;;;;;;17.44;28.07;101207.78;1754409;80;21234;-71
2021/11/18 09:46:33;;;;;;;38.13;25.07;;;;;;;17.60;27.79;101197.30;1779666;80;21312;-72
2021/11/18 09:49:31;;;;;;;37.90;23.00;;;;;;;17.56;27.64;101194.78;1780425;80;21336;-71
2021/11/18 09:52:31;;;;;;;38.97;25.30;;;;;;;16.73;28.99;101197.00;1774705;80;21295;-71
2021/11/18 09:55:12;;;;;;;42.43;28.47;;;;;;;17.34;28.62;101194.71;1786067;80;21764;-69
2021/11/18 09:58:28;;;;;;;40.70;25.90;;;;;;;17.32;28.39;101192.30;1785347;80;21227;-68
2021/11/18 10:01:08;;;;;;;35.03;24.27;;;;;;;17.17;28.28;101181.97;1756443;80;21719;-69
2021/11/18 10:03:54;;;;;;;32.90;23.30;;;;;;;17.16;27.85;101180.36;1783394;79;21257;-71
2021/11/18 10:06:35;;;;;;;85.83;55.30;;;;;;;17.24;28.45;101174.87;1780409;80;21180;-73
2021/11/18 10:09:07;;;;;;;;;;;;;;;17.61;28.05;101165.96;1771556;80;21159;-74
2021/11/18 10:12:19;;;;;;;47.07;29.57;;;;;;;17.64;27.46;101162.91;1769390;80;21214;-73
2021/11/18 10:14:58;;;;;;;40.47;24.97;;;;;;;17.39;27.42;101163.30;1761505;80;21206;-71
2021/11/18 10:17:40;;;;;;;32.00;21.40;;;;;;;17.11;27.92;101162.20;1759124;80;21386;-72
2021/11/18 10:20:11;;;;;;;;;;;;;;;17.48;27.73;101152.31;1765496;80;21212;-72
2021/11/18 10:22:43;;;;;;;34.73;23.23;;;;;;;18.00;27.10;101149.75;1777201;80;22340;-69
2021/11/18 10:25:15;;;;;;;36.42;25.43;;;;;;;18.14;27.12;101146.00;1721921;82;21071;-71
2021/11/18 10:27:53;;;;;;;32.83;22.30;;;;;;;18.57;26.80;101146.67;1774147;80;21492;-70
2021/11/18 10:30:48;;;;;;;32.87;21.43;;;;;;;18.79;26.39;101146.32;1785744;80;21575;-72
2021/11/18 10:33:25;;;;;;;33.43;20.90;;;;;;;18.93;25.80;101136.75;1785362;80;21838;-75
2021/11/18 10:36:11;;;;;;;43.80;28.93;;;;;;;19.22;25.54;101127.06;1781958;79;21311;-71
2021/11/18 10:38:43;;;;;;;42.93;21.97;;;;;;;19.07;25.64;101126.89;1785059;80;21102;-74
2021/11/18 10:41:25;;;;;;;30.20;19.87;;;;;;;18.83;25.35;101122.44;1783196;80;21224;-72
2021/11/18 10:44:18;;;;;;;29.27;21.50;;;;;;;18.78;25.31;101122.27;1758029;80;21251;-71
2021/11/18 10:47:14;;;;;;;35.98;21.75;;;;;;;18.18;25.59;101116.88;1773015;80;21884;-77
2021/11/18 10:49:56;;;;;;;33.53;22.43;;;;;;;17.69;25.60;101107.75;1729523;82;21085;-68
2021/11/18 10:52:34;;;;;;;40.10;25.60;;;;;;;17.65;25.96;101107.87;1779493;80;21075;-68
2021/11/18 10:55:17;;;;;;;39.23;26.97;;;;;;;17.34;26.09;101106.43;1763464;80;20938;-69
2021/11/18 10:58:03;;;;;;;42.73;28.17;;;;;;;17.31;26.26;101105.52;1778211;80;21618;-70
2021/11/18 11:00:45;;;;;;;39.37;25.97;;;;;;;17.07;26.42;101102.53;1775367;80;21244;-70
2021/11/18 11:03:35;;;;;;;;;;;;;;;17.17;26.34;101095.02;1782576;80;21292;-72
2021/11/18 11:06:24;;;;;;;42.97;26.47;;;;;;;17.03;26.61;101097.38;1772700;80;20162;-69
2021/11/18 11:09:12;;;;;;;46.93;30.07;;;;;;;16.87;26.71;101093.85;1774057;80;21228;-72
2021/11/18 11:12:18;;;;;;;42.30;27.87;;;;;;;16.66;26.86;101096.14;1773876;80;22622;-67
2021/11/18 11:15:24;;;;;;;40.83;26.30;;;;;;;16.46;26.94;101092.19;1777312;80;21232;-67
2021/11/18 11:18:12;;;;;;;46.20;27.50;;;;;;;16.41;26.93;101086.22;1758392;79;22559;-66
2021/11/18 11:21:02;;;;;;;41.63;27.43;;;;;;;16.35;26.92;101077.00;1777164;78;21751;-69
2021/11/18 11:23:41;;;;;;;38.73;26.48;;;;;;;16.39;27.04;101072.95;1784594;79;21112;-66
2021/11/18 11:26:57;;;;;;;40.17;28.60;;;;;;;16.21;27.41;101069.10;1784400;80;20994;-74
2021/11/18 11:29:46;;;;;;;40.73;25.23;;;;;;;16.57;26.79;101061.32;1784163;80;21746;-68